Clearfield, PA

10:05 PM EST on February 07, 2016 (GMT -0500)
Twinoaks | | Change Station
CLOSE
Current Station
Personal Weather Station
Location: Curwensville, PA
Elevation: 1493 ft
Nearby Weather Stations

Elev 1493 ft 40.99 °N, 78.53 °W | Updated 57 seconds ago

Clear
Clear
26.8 °F
Feels Like 23 °F
N
3.2
Wind Variable Wind from NW

Today
High -- | Low -- °F
--% Chance of Precip.
Yesterday
High -- | Low -- °F
Precip. -- in
Pressure 29.93 in
Visibility 10.0 miles
Clouds Clear
Windchill 23 °F
Dew Point 22 °F
Humidity 83%
Rainfall 0.00 in
Snow Depth Not available.
7:18 AM 5:37 PM
Waning Crescent, 0% visible
METAR KFIG 080254Z AUTO 36005KT 10SM CLR M02/M06 A2988 RMK AO2 SLP135 T10171056 58012
Pressure 29.93 in
Visibility 10.0 miles
Clouds Clear
Windchill 23 °F
Dew Point 22 °F
Humidity 83%
Rainfall 0.00 in
Snow Depth Not available.
7:18 AM 5:37 PM
Waning Crescent, 0% visible
METAR KFIG 080254Z AUTO 36005KT 10SM CLR M02/M06 A2988 RMK AO2 SLP135 T10171056 58012

10-Day Weather Forecast

Almanac

Astronomy

Feb. 07, 2016 Rise Set
Actual Time
Civil Twilight
Nautical Twilight
Astronomical Twilight
Moon
Length of Visible Light
Length of Day
Tomorrow will be .
, % of the Moon is Illuminated

Today's Extremes

State Highs State Lows

Community

WunderPhotos

Upload Photos

1,891,373 photos uploaded!

WunderBlog® & News

Nearby

Air Quality

  Air Quality AQ Index Pollutant
Not available.

Snow Depth

Station Depth Elevation

Earthquake Activity

City Distance Mag. Time & Date
Minimum magnitude displayed is 2.5.

Coastal Water Temperatures

Place Temperature

Stations

Nearby Weather Stations

Station Location Temp. Windchill Dew Point Humidity Wind Precip. Elev Updated Type
                   

Watches & Warnings

There are currently no watches in effect.